createdAt,value
2019-05-11T00:03:52.872Z,14.00
2019-05-11T00:07:58.554Z,14.20
2019-05-11T00:12:04.617Z,14.00
2019-05-11T00:16:10.297Z,14.10
2019-05-11T00:20:16.290Z,14.30
2019-05-11T00:24:22.078Z,14.30
2019-05-11T00:28:27.835Z,14.50
2019-05-11T00:32:33.541Z,14.50
2019-05-11T00:36:39.238Z,14.20
2019-05-11T00:40:45.031Z,13.90
2019-05-11T00:44:50.673Z,13.60
2019-05-11T00:48:56.347Z,13.70
2019-05-11T00:53:02.026Z,13.50
2019-05-11T00:57:07.719Z,13.60
2019-05-11T01:01:13.414Z,13.80
2019-05-11T01:05:19.128Z,13.70
2019-05-11T01:09:24.830Z,13.70
2019-05-11T01:13:30.538Z,13.90
2019-05-11T01:17:36.217Z,13.60
2019-05-11T01:21:41.926Z,13.70
2019-05-11T01:25:47.725Z,13.80
2019-05-11T01:29:53.419Z,13.70
2019-05-11T01:33:59.091Z,13.70
2019-05-11T01:38:04.860Z,13.70
2019-05-11T01:42:10.548Z,13.80
2019-05-11T01:46:16.259Z,13.80
2019-05-11T01:50:21.933Z,13.70
2019-05-11T01:54:27.620Z,13.60
2019-05-11T01:58:33.296Z,13.80
2019-05-11T02:02:38.991Z,13.70
2019-05-11T02:06:44.690Z,13.60
2019-05-11T02:10:50.368Z,13.70
2019-05-11T02:14:56.068Z,13.80
2019-05-11T02:19:01.774Z,13.90
2019-05-11T02:23:07.525Z,14.00
2019-05-11T02:27:13.209Z,13.60
2019-05-11T02:31:18.897Z,13.40
2019-05-11T02:35:24.768Z,13.30
2019-05-11T02:39:30.462Z,13.50
2019-05-11T02:43:36.153Z,13.50
2019-05-11T02:47:41.837Z,13.40
2019-05-11T02:51:48.147Z,13.80
2019-05-11T02:55:54.737Z,13.50
2019-05-11T03:00:00.432Z,13.40
2019-05-11T03:04:07.194Z,13.40
2019-05-11T03:08:12.870Z,13.30
2019-05-11T03:12:18.632Z,13.50
2019-05-11T03:16:24.357Z,13.60
2019-05-11T03:20:30.115Z,13.80
2019-05-11T03:24:35.794Z,14.10
2019-05-11T03:28:41.490Z,14.30
2019-05-11T03:32:47.177Z,14.30
2019-05-11T03:36:52.930Z,14.30
2019-05-11T03:40:58.663Z,14.30
2019-05-11T03:45:05.986Z,14.10
2019-05-11T03:49:11.669Z,14.00
2019-05-11T03:53:17.389Z,13.80
2019-05-11T03:57:23.070Z,14.00
2019-05-11T04:01:28.825Z,14.00
2019-05-11T04:05:34.578Z,14.40
2019-05-11T04:09:40.268Z,13.90
2019-05-11T04:13:45.942Z,13.90
2019-05-11T04:17:51.640Z,13.90
2019-05-11T04:21:57.373Z,14.00
2019-05-11T04:26:03.064Z,13.90
2019-05-11T04:30:09.573Z,13.90
2019-05-11T04:34:15.277Z,13.90
2019-05-11T04:38:20.964Z,14.00
2019-05-11T04:42:30.408Z,13.80
2019-05-11T04:46:36.091Z,13.90
2019-05-11T04:50:41.845Z,13.90
2019-05-11T04:54:47.541Z,13.90
2019-05-11T04:58:53.232Z,13.80
2019-05-11T05:02:58.926Z,13.90
2019-05-11T05:07:05.527Z,14.00
2019-05-11T05:11:12.152Z,14.00
2019-05-11T05:15:17.834Z,14.00
2019-05-11T05:19:23.583Z,14.00
2019-05-11T05:23:29.267Z,14.00
2019-05-11T05:27:36.032Z,14.10
2019-05-11T05:31:41.775Z,14.30
2019-05-11T05:35:48.063Z,14.40
2019-05-11T05:39:53.743Z,14.60
2019-05-11T05:43:59.498Z,14.70
2019-05-11T05:48:05.264Z,14.60
2019-05-11T05:52:10.984Z,14.60
2019-05-11T05:56:16.649Z,14.50
2019-05-11T06:00:22.680Z,14.40
2019-05-11T06:04:28.551Z,14.50
2019-05-11T06:08:34.227Z,14.40
2019-05-11T06:12:39.919Z,14.40
2019-05-11T06:16:45.614Z,14.30
2019-05-11T06:20:51.386Z,14.20
2019-05-11T06:24:57.096Z,14.10
2019-05-11T06:29:02.778Z,14.30
2019-05-11T06:33:08.497Z,14.50
2019-05-11T06:37:14.163Z,14.50
2019-05-11T06:41:19.867Z,14.80
2019-05-11T06:45:25.646Z,15.30
2019-05-11T06:49:31.391Z,15.60
2019-05-11T06:53:37.109Z,15.80
2019-05-11T06:57:42.872Z,15.80
2019-05-11T07:01:48.591Z,15.60
2019-05-11T07:05:54.286Z,15.70
2019-05-11T07:09:59.963Z,15.90
2019-05-11T07:14:19.370Z,15.90
2019-05-11T07:18:13.224Z,16.30
2019-05-11T07:22:18.985Z,16.90
2019-05-11T07:26:24.671Z,16.90
2019-05-11T07:30:30.470Z,17.00
2019-05-11T07:34:38.230Z,17.10
2019-05-11T07:38:43.595Z,17.20
2019-05-11T07:42:49.314Z,17.50
2019-05-11T07:46:55.042Z,18.10
2019-05-11T07:51:00.702Z,18.80
2019-05-11T07:55:08.523Z,19.10
2019-05-11T07:59:14.477Z,19.40
2019-05-11T08:03:20.181Z,19.10
2019-05-11T08:07:25.847Z,18.30
2019-05-11T08:11:31.667Z,18.20
2019-05-11T08:15:38.244Z,18.30
2019-05-11T08:19:44.079Z,18.20
2019-05-11T08:23:49.852Z,18.10
2019-05-11T08:27:55.544Z,18.20
2019-05-11T08:32:01.245Z,18.20
2019-05-11T08:36:08.339Z,18.30
2019-05-11T08:40:18.285Z,18.40
2019-05-11T08:44:24.190Z,18.80
2019-05-11T08:48:29.873Z,19.60
2019-05-11T08:52:35.639Z,20.90
2019-05-11T08:56:41.931Z,20.40
2019-05-11T09:00:47.907Z,19.90
2019-05-11T09:04:53.538Z,19.20
2019-05-11T09:08:59.225Z,18.60
2019-05-11T09:13:04.934Z,18.30
2019-05-11T09:17:10.599Z,18.40
2019-05-11T09:21:18.799Z,17.80
2019-05-11T09:25:23.717Z,17.90
2019-05-11T09:29:29.409Z,19.30
2019-05-11T09:33:35.088Z,20.90
2019-05-11T09:37:40.786Z,21.80
2019-05-11T09:41:48.661Z,22.40
2019-05-11T09:45:53.863Z,22.60
2019-05-11T09:49:59.545Z,23.40
2019-05-11T09:54:07.674Z,22.70
2019-05-11T09:58:12.673Z,23.20
2019-05-11T10:02:21.011Z,23.80
2019-05-11T10:06:28.059Z,24.20
2019-05-11T10:10:34.134Z,23.40
2019-05-11T10:14:39.826Z,24.70
2019-05-11T10:18:45.660Z,26.40
2019-05-11T10:22:51.340Z,24.70
2019-05-11T10:26:57.798Z,23.20
2019-05-11T10:31:03.637Z,22.30
2019-05-11T10:35:09.533Z,21.90
2019-05-11T10:39:18.449Z,21.10
2019-05-11T10:43:23.655Z,20.70
2019-05-11T10:47:30.498Z,21.70
2019-05-11T10:51:38.312Z,22.20
2019-05-11T10:55:43.960Z,22.40
2019-05-11T10:59:49.651Z,22.00
2019-05-11T11:03:55.348Z,21.00
2019-05-11T11:08:01.042Z,20.80
2019-05-11T11:12:08.327Z,20.50
2019-05-11T11:16:14.025Z,20.70
2019-05-11T11:20:20.125Z,20.90
2019-05-11T11:24:28.534Z,21.00
2019-05-11T11:28:33.190Z,21.50
2019-05-11T11:32:38.976Z,22.70
2019-05-11T11:36:44.713Z,23.10
2019-05-11T11:40:50.416Z,24.50
2019-05-11T11:44:56.091Z,24.40
2019-05-11T11:49:01.793Z,24.20
2019-05-11T11:53:08.384Z,22.50
2019-05-11T11:57:14.534Z,20.60
2019-05-11T12:01:20.397Z,20.50
2019-05-11T12:05:28.111Z,20.20
2019-05-11T12:09:33.473Z,20.60
2019-05-11T12:13:39.190Z,20.40
2019-05-11T12:17:44.872Z,20.20
2019-05-11T12:21:50.668Z,20.40
2019-05-11T12:25:58.006Z,20.80
2019-05-11T12:30:05.778Z,21.60
2019-05-11T12:34:11.457Z,21.70
2019-05-11T12:38:18.427Z,21.10
2019-05-11T12:42:24.525Z,21.80
2019-05-11T12:46:31.925Z,23.50
2019-05-11T12:50:37.995Z,24.60
2019-05-11T12:54:43.718Z,22.90
2019-05-11T12:58:49.414Z,22.40
2019-05-11T13:02:55.091Z,23.50
2019-05-11T13:07:00.882Z,23.40
2019-05-11T13:11:07.880Z,24.40
2019-05-11T13:15:14.193Z,25.00
2019-05-11T13:19:19.944Z,25.60
2019-05-11T13:23:27.646Z,24.40
2019-05-11T13:27:33.108Z,23.50
2019-05-11T13:31:38.807Z,22.60
2019-05-11T13:35:44.500Z,21.20
2019-05-11T13:39:50.341Z,18.40
2019-05-11T13:43:57.671Z,17.40
2019-05-11T13:48:03.505Z,16.40
2019-05-11T13:52:09.179Z,15.80
2019-05-11T13:56:14.876Z,15.80
2019-05-11T14:00:20.646Z,16.00
2019-05-11T14:04:28.131Z,16.70
2019-05-11T14:08:33.888Z,17.80
2019-05-11T14:12:39.607Z,18.50
2019-05-11T14:16:45.348Z,18.90
2019-05-11T14:20:51.051Z,18.80
2019-05-11T14:24:58.579Z,19.30
2019-05-11T14:29:04.229Z,19.10
2019-05-11T14:33:09.938Z,18.70
2019-05-11T14:37:17.898Z,17.50
2019-05-11T14:41:23.037Z,17.40
2019-05-11T14:45:29.044Z,17.60
2019-05-11T14:49:34.717Z,17.80
2019-05-11T14:53:40.463Z,18.40
2019-05-11T14:57:48.380Z,19.40
2019-05-11T15:02:40.727Z,20.50
2019-05-11T15:06:48.815Z,20.10
2019-05-11T15:10:53.891Z,19.50
2019-05-11T15:14:59.628Z,19.00
2019-05-11T15:19:05.368Z,18.50
2019-05-11T15:23:11.115Z,17.70
2019-05-11T15:27:18.396Z,17.10
2019-05-11T15:31:24.277Z,16.50
2019-05-11T15:35:30.042Z,16.20
2019-05-11T15:39:37.758Z,15.60
2019-05-11T15:43:44.281Z,15.40
2019-05-11T15:47:50.092Z,15.20
2019-05-11T15:51:57.718Z,15.40
2019-05-11T15:56:03.296Z,15.50
2019-05-11T16:00:11.690Z,15.40
2019-05-11T16:04:18.148Z,15.20
2019-05-11T16:08:23.966Z,15.20
2019-05-11T16:12:29.648Z,15.30
2019-05-11T16:16:35.371Z,15.70
2019-05-11T16:20:41.062Z,15.80
2019-05-11T16:24:48.545Z,16.00
2019-05-11T16:28:54.599Z,15.80
2019-05-11T16:33:00.410Z,15.50
2019-05-11T16:37:09.921Z,15.50
2019-05-11T16:41:13.573Z,15.90
2019-05-11T16:45:22.952Z,16.20
2019-05-11T16:49:32.095Z,16.30
2019-05-11T16:53:35.383Z,16.20
2019-05-11T16:57:41.923Z,16.20
2019-05-11T17:01:48.217Z,16.30
2019-05-11T17:05:54.074Z,16.40
2019-05-11T17:09:59.790Z,16.40
2019-05-11T17:14:05.599Z,16.30
2019-05-11T17:18:11.918Z,16.20
2019-05-11T17:22:18.988Z,16.10
2019-05-11T17:26:24.697Z,16.10
2019-05-11T17:30:30.408Z,16.10
2019-05-11T17:34:38.025Z,15.90
2019-05-11T17:38:43.495Z,16.00
2019-05-11T17:42:53.015Z,15.90
2019-05-11T17:46:57.825Z,15.90
2019-05-11T17:51:18.460Z,15.80
2019-05-11T17:55:13.392Z,15.80
2019-05-11T17:59:19.626Z,15.80
2019-05-11T18:08:55.821Z,16.60
2019-05-11T18:13:04.120Z,16.90
2019-05-11T18:17:10.112Z,16.70
2019-05-11T18:21:15.868Z,16.60
2019-05-11T18:25:21.580Z,16.80
2019-05-11T18:29:28.853Z,16.60
2019-05-11T18:33:34.731Z,16.60
2019-05-11T18:37:40.499Z,16.50
2019-05-11T18:41:48.312Z,16.80
2019-05-11T18:45:53.642Z,16.90
2019-05-11T18:49:59.430Z,16.50
2019-05-11T18:54:05.609Z,16.10
2019-05-11T18:58:11.769Z,16.10
2019-05-11T19:02:17.670Z,16.00
2019-05-11T19:06:23.915Z,16.70
2019-05-11T19:10:29.719Z,16.70
2019-05-11T19:14:35.506Z,17.60
2019-05-11T19:18:42.730Z,16.70
2019-05-11T19:22:48.671Z,16.60
2019-05-11T19:26:54.410Z,16.90
2019-05-11T19:31:00.153Z,16.80
2019-05-11T19:35:08.840Z,16.20
2019-05-11T19:39:14.596Z,16.00
2019-05-11T19:43:20.429Z,15.80
2019-05-11T19:54:58.315Z,15.70
2019-05-11T19:59:04.026Z,16.30
2019-05-11T20:06:13.323Z,16.60
2019-05-11T20:10:19.295Z,16.30
2019-05-11T20:18:18.304Z,16.30
2019-05-11T20:22:23.565Z,16.20
2019-05-11T20:26:29.324Z,16.20
2019-05-11T20:30:35.031Z,16.20
2019-05-11T20:34:41.237Z,15.90
2019-05-11T20:43:00.563Z,15.70
2019-05-11T20:47:06.229Z,15.70
2019-05-11T20:52:39.650Z,15.60
2019-05-11T20:56:47.866Z,15.40
2019-05-11T21:00:53.669Z,15.50
2019-05-11T21:04:59.506Z,15.40
2019-05-11T21:09:07.937Z,15.30
2019-05-11T21:13:13.633Z,15.60
2019-05-11T21:17:19.320Z,15.40
2019-05-11T21:21:25.007Z,15.10
2019-05-11T21:25:30.718Z,15.20
2019-05-11T21:29:38.718Z,15.30
2019-05-11T21:33:43.922Z,15.30
2019-05-11T21:37:49.667Z,15.00
2019-05-11T21:41:55.521Z,14.60
2019-05-11T21:46:01.455Z,14.70
2019-05-11T21:50:08.349Z,14.70
2019-05-11T21:54:14.072Z,14.40
2019-05-11T21:58:19.758Z,14.70
2019-05-11T22:02:25.651Z,14.70
2019-05-11T22:06:31.407Z,14.70
2019-05-11T22:10:38.618Z,14.90
2019-05-11T22:14:44.729Z,14.80
2019-05-11T22:18:50.395Z,14.20
2019-05-11T22:22:58.077Z,14.50
2019-05-11T22:27:03.483Z,14.50
2019-05-11T22:31:09.161Z,14.20
2019-05-11T22:35:14.982Z,14.30
2019-05-11T22:39:20.999Z,14.30
2019-05-11T22:43:28.531Z,14.30
2019-05-11T22:47:34.044Z,14.20
2019-05-11T22:51:39.718Z,14.40
2019-05-11T22:55:45.410Z,14.20
2019-05-11T22:59:51.091Z,14.40
2019-05-11T23:03:58.338Z,14.10
2019-05-11T23:08:07.533Z,13.90
2019-05-11T23:12:12.808Z,14.10
2019-05-11T23:16:18.515Z,14.00
2019-05-11T23:20:24.256Z,13.80
2019-05-11T23:24:29.951Z,14.10
2019-05-11T23:28:37.797Z,13.90
2019-05-11T23:32:43.216Z,13.90
2019-05-11T23:36:48.895Z,13.90
2019-05-11T23:40:54.580Z,14.10
2019-05-11T23:45:00.247Z,14.10
2019-05-11T23:49:05.940Z,13.70
2019-05-11T23:53:11.614Z,13.70
2019-05-11T23:57:18.621Z,13.50
